Cazaux, France

1:56 PM CEST on May 26, 2015 (GMT +0200)
Cazaux Air Base | | Change Station
CLOSE
Current Station
Airport
Location: Cazaux,
Elevation: 82 ft
Nearby Weather Stations

Elev 82 ft 44.53 °N, 1.12 °W | Updated 26 minutes ago

Overcast
Overcast
64 °F
Feels Like 64 °F
N
13
Wind Variable Wind from NW

Today
High -- | Low -- °F
--% Chance of Precip.
Yesterday
High -- | Low -- °F
Precip. -- in
6:27 AM 9:36 PM
First Quarter, 57% visible
Pressure 30.21 in
Visibility 6.2 miles
Clouds Few 3500 ft
Scattered Clouds 4600 ft
Overcast 5800 ft
Dew Point 50 °F
Humidity 59%
Rainfall 0.00 in
Snow Depth Not available.
UV 4 out of 12
Pollen Not available.
Air Quality Not available.
Flu Activity Not available.
METAR LFBC 261130Z AUTO 31011KT 280V340 9999 FEW035 SCT046 OVC058 18/10 Q1023

More Conditions Fewer Conditions

Pressure 30.21 in
Visibility 6.2 miles
Clouds Few 3500 ft
Scattered Clouds 4600 ft
Overcast 5800 ft
Dew Point 50 °F
Humidity 59%
Rainfall 0.00 in
Snow Depth Not available.
UV 4 out of 12
Pollen Not available.
Air Quality Not available.
Flu Activity Not available.
METAR LFBC 261130Z AUTO 31011KT 280V340 9999 FEW035 SCT046 OVC058 18/10 Q1023

More Conditions Fewer Conditions

10-Day Weather Forecast

Almanac

Astronomy

May. 26, 2015 Rise Set
Actual Time
Civil Twilight
Nautical Twilight
Astronomical Twilight
Moon
Length of Visible Light
Length of Day
Tomorrow will be .
, % of the Moon is Illuminated

Today's Extremes

Country Highs Country Lows

Community

WunderPhotos

Upload Photos

1,824,304 photos uploaded!

WunderBlogs® & News

Nearby

Air Quality

  Air Quality AQ Index Pollutant
Not available.

Snow Depth

Station Depth Elevation

Earthquake Activity

City Distance Mag. Time & Date
Minimum magnitude displayed is 2.5.

Coastal Water Temperatures

Place Temperature

Stations

Nearby Weather Stations

Station Location Temp. Windchill Dew Point Humidity Wind Precip. Elev Updated Type